Time;durP1;ratioP1;P1;durP2;ratioP2;P2;SDS_P1;SDS_P2;PMS_P1;PMS_P2;Temp;Humidity;BMP_temperature;BMP_pressure;BME280_temperature;BME280_humidity;BME280_pressure;Samples;Min_cycle;Max_cycle;Signal;HPM_P1;HPM_P2
2021/09/08 00:01:39;;;;;;;9.07;7.73;;;27.00;44.80;;;;;;5109207;28;20418;-86
2021/09/08 00:04:08;;;;;;;8.40;7.33;;;27.00;44.90;;;;;;5109261;28;20403;-78
2021/09/08 00:06:38;;;;;;;12.13;7.97;;;27.00;44.80;;;;;;5109017;28;20406;-78
2021/09/08 00:09:06;;;;;;;8.43;7.50;;;27.00;44.80;;;;;;5108937;28;20403;-78
2021/09/08 00:11:38;;;;;;;8.10;7.30;;;26.90;44.70;;;;;;5109094;28;20478;-78
2021/09/08 00:14:06;;;;;;;9.57;7.90;;;26.90;44.80;;;;;;5109050;28;20403;-78
2021/09/08 00:16:34;;;;;;;10.83;8.73;;;26.90;44.80;;;;;;5109012;28;20464;-77
2021/09/08 00:19:02;;;;;;;8.93;7.70;;;26.90;44.90;;;;;;5108965;28;20485;-82
2021/09/08 00:21:30;;;;;;;8.93;8.00;;;26.80;44.80;;;;;;5108612;28;20520;-77
2021/09/08 00:23:58;;;;;;;8.07;7.27;;;26.80;44.70;;;;;;5108836;28;20486;-79
2021/09/08 00:26:26;;;;;;;6.87;6.20;;;26.80;44.80;;;;;;5108941;28;20434;-87
2021/09/08 00:28:55;;;;;;;7.73;7.03;;;26.80;44.80;;;;;;5108712;28;20584;-78
2021/09/08 00:31:23;;;;;;;8.30;7.50;;;26.80;44.80;;;;;;5108484;28;20439;-82
2021/09/08 00:33:51;;;;;;;8.20;7.40;;;26.80;44.90;;;;;;5109078;28;20425;-78
2021/09/08 00:36:19;;;;;;;8.00;7.30;;;26.80;44.90;;;;;;5109078;28;20457;-78
2021/09/08 00:38:47;;;;;;;8.63;7.67;;;26.70;44.80;;;;;;5109011;28;20468;-78
2021/09/08 00:41:15;;;;;;;9.73;7.53;;;26.70;44.80;;;;;;5108709;28;20435;-78
2021/09/08 00:43:43;;;;;;;8.47;7.60;;;26.70;44.80;;;;;;5108482;28;20446;-78
2021/09/08 00:46:12;;;;;;;8.97;7.70;;;26.70;44.80;;;;;;5108917;28;20444;-86
2021/09/08 00:48:40;;;;;;;8.50;7.70;;;26.60;44.80;;;;;;5108748;28;20409;-78
2021/09/08 00:51:08;;;;;;;7.30;6.60;;;26.60;44.80;;;;;;5108801;28;20421;-77
2021/09/08 00:53:38;;;;;;;8.23;7.47;;;26.60;44.80;;;;;;5108698;28;20476;-82
2021/09/08 00:56:06;;;;;;;8.57;7.67;;;26.60;44.90;;;;;;5108538;28;20478;-87
2021/09/08 00:58:34;;;;;;;7.67;6.87;;;26.60;44.90;;;;;;5108419;28;20418;-87
2021/09/08 01:01:02;;;;;;;9.17;7.67;;;26.50;44.80;;;;;;5108016;28;20406;-78
2021/09/08 01:03:32;;;;;;;8.50;6.90;;;26.50;44.80;;;;;;5112035;28;20424;-81
2021/09/08 01:06:00;;;;;;;8.27;7.37;;;26.50;44.90;;;;;;5111687;28;20465;-82
2021/09/08 01:08:28;;;;;;;8.70;7.80;;;26.50;44.80;;;;;;5111739;28;20539;-89
2021/09/08 01:10:57;;;;;;;8.67;7.23;;;26.50;44.90;;;;;;5112023;28;20440;-85
2021/09/08 01:13:25;;;;;;;8.90;7.57;;;26.50;44.90;;;;;;5112385;28;20438;-79
2021/09/08 01:15:56;;;;;;;9.13;7.20;;;26.50;44.90;;;;;;5112264;28;20427;-82
2021/09/08 01:18:24;;;;;;;7.77;7.03;;;26.40;44.80;;;;;;5112172;28;20436;-79
2021/09/08 01:20:54;;;;;;;7.90;7.10;;;26.40;44.80;;;;;;5111735;28;20448;-79
2021/09/08 01:23:23;;;;;;;8.10;7.30;;;26.40;44.90;;;;;;5111890;28;20410;-88
2021/09/08 01:25:51;;;;;;;8.00;7.20;;;26.30;44.80;;;;;;5111978;28;20460;-81
2021/09/08 01:28:19;;;;;;;6.50;5.70;;;26.30;44.80;;;;;;5111958;28;20455;-81
2021/09/08 01:30:47;;;;;;;8.00;7.20;;;26.30;44.90;;;;;;5111553;28;20489;-81
2021/09/08 01:33:15;;;;;;;7.97;7.17;;;26.30;44.90;;;;;;5111508;28;20442;-78
2021/09/08 01:35:43;;;;;;;7.50;6.80;;;26.20;44.80;;;;;;5111930;28;20467;-88
2021/09/08 01:38:11;;;;;;;7.97;6.57;;;26.20;44.80;;;;;;5111833;28;20476;-82
2021/09/08 01:40:40;;;;;;;7.23;6.53;;;26.20;44.80;;;;;;5111238;28;20411;-78
2021/09/08 01:43:08;;;;;;;7.57;6.87;;;26.20;44.80;;;;;;5109669;28;20497;-78
2021/09/08 01:45:38;;;;;;;8.13;6.37;;;26.20;44.80;;;;;;5111302;28;20419;-77
2021/09/08 01:48:07;;;;;;;8.30;6.77;;;26.20;44.80;;;;;;5110803;28;20482;-77
2021/09/08 01:50:35;;;;;;;7.53;6.83;;;26.20;44.80;;;;;;5113375;28;20436;-86
2021/09/08 01:53:03;;;;;;;7.07;6.37;;;26.10;44.80;;;;;;5111753;28;20461;-81
2021/09/08 01:55:31;;;;;;;9.80;7.43;;;26.10;44.70;;;;;;5111589;28;20402;-88
2021/09/08 01:58:03;;;;;;;7.90;7.20;;;26.10;44.80;;;;;;5111502;28;20530;-89
2021/09/08 02:00:31;;;;;;;7.30;6.60;;;26.10;44.80;;;;;;5103859;28;20466;-82
2021/09/08 02:03:01;;;;;;;6.77;6.13;;;26.10;44.80;;;;;;5107870;28;20424;-77
2021/09/08 02:05:30;;;;;;;7.57;6.77;;;26.00;44.80;;;;;;5104457;28;20406;-87
2021/09/08 02:07:58;;;;;;;8.27;7.30;;;26.00;44.80;;;;;;5110570;28;20468;-77
2021/09/08 02:10:26;;;;;;;8.20;7.40;;;26.00;44.80;;;;;;5110414;28;20520;-86
2021/09/08 02:12:54;;;;;;;8.00;7.20;;;25.90;44.70;;;;;;5109841;28;20467;-82
2021/09/08 02:15:23;;;;;;;7.93;7.00;;;25.90;44.80;;;;;;5110653;28;20464;-86
2021/09/08 02:17:51;;;;;;;7.67;6.93;;;25.90;44.80;;;;;;5105000;28;20432;-86
2021/09/08 02:20:19;;;;;;;7.53;6.83;;;25.90;44.80;;;;;;5109381;28;20478;-87
2021/09/08 02:22:47;;;;;;;8.37;7.10;;;25.90;44.80;;;;;;5109271;28;20437;-86
2021/09/08 02:25:15;;;;;;;9.63;7.70;;;25.90;44.80;;;;;;5097338;28;20416;-77
2021/09/08 02:27:43;;;;;;;6.90;6.30;;;25.90;44.70;;;;;;5090247;28;20449;-77
2021/09/08 02:30:11;;;;;;;7.00;6.30;;;25.90;44.70;;;;;;5090506;28;20463;-78
2021/09/08 02:32:41;;;;;;;6.97;6.30;;;25.90;44.80;;;;;;5090883;28;20498;-87
2021/09/08 02:35:10;;;;;;;6.83;6.23;;;25.80;44.80;;;;;;5091229;28;20458;-88
2021/09/08 02:37:38;;;;;;;7.20;6.50;;;25.80;44.80;;;;;;5090239;28;20452;-88
2021/09/08 02:40:08;;;;;;;7.70;6.90;;;25.70;44.80;;;;;;5090114;28;20403;-88
2021/09/08 02:42:35;;;;;;;7.30;6.60;;;25.70;44.80;;;;;;5089910;28;20441;-88
2021/09/08 02:45:04;;;;;;;9.10;6.50;;;25.70;44.80;;;;;;5089974;28;20442;-88
2021/09/08 02:47:33;;;;;;;8.17;7.37;;;25.70;44.80;;;;;;5090284;28;20525;-88
2021/09/08 02:50:03;;;;;;;7.30;6.60;;;25.70;44.90;;;;;;5090208;28;20443;-83
2021/09/08 02:52:31;;;;;;;7.67;6.73;;;25.60;44.80;;;;;;5090043;28;20452;-83
2021/09/08 02:54:59;;;;;;;7.63;6.93;;;25.70;44.80;;;;;;5090207;28;20399;-83
2021/09/08 02:57:27;;;;;;;7.60;6.80;;;25.60;44.80;;;;;;5089702;28;20458;-79
2021/09/08 02:59:55;;;;;;;6.73;6.13;;;25.60;44.80;;;;;;5089991;28;20431;-89
2021/09/08 03:02:23;;;;;;;6.50;5.90;;;25.60;44.80;;;;;;5089741;28;20449;-82
2021/09/08 03:04:51;;;;;;;6.73;6.13;;;25.60;44.80;;;;;;5089872;28;20448;-82
2021/09/08 03:07:20;;;;;;;7.47;6.67;;;25.60;44.90;;;;;;5089458;28;20437;-89
2021/09/08 03:09:48;;;;;;;7.73;6.93;;;25.60;45.00;;;;;;5089582;28;20514;-80
2021/09/08 03:12:16;;;;;;;7.27;6.50;;;25.50;44.70;;;;;;5089481;28;20506;-82
2021/09/08 03:14:44;;;;;;;7.07;6.37;;;25.50;44.80;;;;;;5089617;28;20439;-82
2021/09/08 03:17:12;;;;;;;6.83;6.13;;;25.50;44.90;;;;;;5088200;28;20460;-80
2021/09/08 03:19:40;;;;;;;8.10;6.23;;;25.50;44.90;;;;;;5087281;28;20407;-79
2021/09/08 03:22:08;;;;;;;7.47;6.37;;;25.50;44.80;;;;;;5087220;28;20423;-77
2021/09/08 03:24:37;;;;;;;7.50;6.40;;;25.40;44.80;;;;;;5086745;28;20482;-78
2021/09/08 03:27:06;;;;;;;7.00;6.40;;;25.40;44.80;;;;;;5087057;28;20404;-78
2021/09/08 03:29:34;;;;;;;6.73;6.10;;;25.40;44.90;;;;;;5088197;28;20400;-83
2021/09/08 03:32:01;;;;;;;7.40;6.70;;;25.40;44.80;;;;;;5088062;28;20415;-82
2021/09/08 03:34:29;;;;;;;6.97;6.10;;;25.40;44.90;;;;;;5088876;28;20526;-82
2021/09/08 03:36:57;;;;;;;6.47;5.90;;;25.40;44.90;;;;;;5088901;28;20421;-82
2021/09/08 03:39:25;;;;;;;6.80;6.10;;;25.40;44.80;;;;;;5089787;28;20461;-82
2021/09/08 03:41:55;;;;;;;6.40;5.80;;;25.30;44.80;;;;;;5089218;28;20404;-82
2021/09/08 03:44:23;;;;;;;6.90;5.90;;;25.30;44.80;;;;;;5088772;28;20407;-82
2021/09/08 03:46:51;;;;;;;7.10;6.27;;;25.30;44.80;;;;;;5088983;28;20464;-88
2021/09/08 03:49:18;;;;;;;9.00;6.10;;;25.30;44.80;;;;;;5088954;28;20404;-87
2021/09/08 03:51:46;;;;;;;7.63;6.83;;;25.30;44.80;;;;;;5088860;28;20437;-87
2021/09/08 03:54:14;;;;;;;7.43;6.70;;;25.20;44.80;;;;;;5088846;28;20447;-78
2021/09/08 03:56:42;;;;;;;7.00;6.30;;;25.20;44.80;;;;;;5089331;28;20408;-78
2021/09/08 03:59:11;;;;;;;6.90;6.30;;;25.20;44.80;;;;;;5089007;28;20469;-88
2021/09/08 04:01:39;;;;;;;7.27;6.57;;;25.20;44.80;;;;;;5097663;28;20520;-79
2021/09/08 04:04:08;;;;;;;6.87;6.17;;;25.20;44.80;;;;;;5095641;28;20447;-88
2021/09/08 04:06:36;;;;;;;6.20;5.60;;;25.20;44.80;;;;;;5105884;28;20471;-88
2021/09/08 04:09:04;;;;;;;8.67;6.33;;;25.20;44.80;;;;;;5107836;28;20510;-79
2021/09/08 04:11:32;;;;;;;7.10;6.40;;;25.20;44.80;;;;;;5108861;28;20456;-79
2021/09/08 04:13:59;;;;;;;6.40;5.80;;;25.10;44.70;;;;;;5109220;28;20434;-88
2021/09/08 04:16:29;;;;;;;6.83;6.13;;;25.10;44.80;;;;;;5106527;28;20424;-78
2021/09/08 04:18:57;;;;;;;6.20;5.70;;;25.10;44.80;;;;;;5108356;28;20440;-88
2021/09/08 04:21:25;;;;;;;5.90;5.40;;;25.10;44.80;;;;;;5108796;28;20435;-82
2021/09/08 04:23:53;;;;;;;6.80;6.20;;;25.10;44.80;;;;;;5107143;28;20426;-86
2021/09/08 04:26:21;;;;;;;6.37;5.77;;;25.00;44.80;;;;;;5095108;28;20445;-86
2021/09/08 04:28:50;;;;;;;6.10;5.50;;;25.00;44.80;;;;;;5088769;28;20466;-81
2021/09/08 04:31:22;;;;;;;7.17;6.13;;;25.00;44.80;;;;;;5096727;28;20444;-80
2021/09/08 04:33:55;;;;;;;8.40;6.17;;;25.00;44.80;;;;;;5108142;28;20567;-80
2021/09/08 04:36:25;;;;;;;5.60;5.20;;;25.00;44.80;;;;;;5104502;28;20402;-80
2021/09/08 04:38:53;;;;;;;7.40;6.20;;;25.00;44.70;;;;;;5112916;28;20519;-79
2021/09/08 04:41:21;;;;;;;7.97;5.97;;;25.00;44.70;;;;;;5112757;28;20445;-79
2021/09/08 04:43:49;;;;;;;5.57;5.00;;;25.00;44.80;;;;;;5112905;28;20455;-80
2021/09/08 04:46:17;;;;;;;6.30;5.70;;;24.90;44.90;;;;;;5112908;28;20440;-81
2021/09/08 04:48:45;;;;;;;6.67;6.00;;;24.90;44.80;;;;;;5112530;28;20510;-88
2021/09/08 04:51:15;;;;;;;5.60;5.10;;;24.90;44.90;;;;;;5112587;28;20418;-84
2021/09/08 04:53:47;;;;;;;5.47;4.97;;;24.90;45.00;;;;;;5112580;28;20410;-83
2021/09/08 04:56:15;;;;;;;5.80;5.30;;;24.90;45.00;;;;;;5112893;28;20436;-82
2021/09/08 04:58:43;;;;;;;6.90;5.20;;;24.90;45.00;;;;;;5112838;28;20424;-81
2021/09/08 05:01:11;;;;;;;5.87;5.37;;;24.90;45.00;;;;;;5112084;28;20407;-82
2021/09/08 05:03:41;;;;;;;7.00;5.63;;;24.90;44.90;;;;;;5112525;27;20492;-85
2021/09/08 05:06:09;;;;;;;6.20;5.60;;;24.80;45.00;;;;;;5110777;28;20485;-85
2021/09/08 05:08:41;;;;;;;5.70;5.10;;;24.80;45.00;;;;;;5112322;28;20467;-86
2021/09/08 05:11:12;;;;;;;5.77;5.23;;;24.80;45.00;;;;;;5112214;28;20453;-86
2021/09/08 05:13:40;;;;;;;6.60;5.80;;;24.80;44.90;;;;;;5110172;28;20513;-81
2021/09/08 05:16:09;;;;;;;6.90;6.20;;;24.80;45.10;;;;;;5112280;28;20463;-82
2021/09/08 05:18:37;;;;;;;6.50;5.80;;;24.80;45.00;;;;;;5111709;28;20494;-82
2021/09/08 05:21:05;;;;;;;5.93;5.33;;;24.80;45.70;;;;;;5098277;28;20442;-77
2021/09/08 05:23:32;;;;;;;5.80;5.30;;;24.80;45.00;;;;;;5101663;28;20438;-83
2021/09/08 05:26:02;;;;;;;6.07;5.57;;;24.80;45.20;;;;;;5107315;28;20453;-83
2021/09/08 05:28:30;;;;;;;5.67;5.10;;;24.80;45.10;;;;;;5107029;28;20443;-82
2021/09/08 05:30:58;;;;;;;5.43;4.93;;;24.80;45.00;;;;;;5106644;28;20471;-82
2021/09/08 05:33:26;;;;;;;5.60;5.10;;;24.80;45.10;;;;;;5107395;28;20503;-84
2021/09/08 05:35:54;;;;;;;6.53;5.73;;;24.80;45.10;;;;;;5107220;28;20532;-78
2021/09/08 05:38:22;;;;;;;6.63;6.03;;;24.80;45.10;;;;;;5107325;28;20483;-78
2021/09/08 05:40:51;;;;;;;6.53;5.43;;;24.80;45.10;;;;;;5106607;28;20467;-78
2021/09/08 05:43:20;;;;;;;6.17;5.53;;;24.80;45.10;;;;;;5105059;28;20418;-80
2021/09/08 05:45:49;;;;;;;16.63;7.20;;;24.80;45.00;;;;;;5099205;28;20418;-80
2021/09/08 05:48:20;;;;;;;9.00;7.67;;;24.80;46.30;;;;;;5105705;28;20427;-77
2021/09/08 05:50:48;;;;;;;11.27;8.43;;;25.10;48.40;;;;;;5103467;28;20489;-80
2021/09/08 05:53:16;;;;;;;10.93;8.53;;;25.40;48.20;;;;;;5106667;28;20453;-81
2021/09/08 05:55:47;;;;;;;11.53;8.37;;;25.50;48.20;;;;;;5104392;28;20541;-81
2021/09/08 05:58:15;;;;;;;12.07;9.17;;;25.60;48.50;;;;;;5106356;28;20505;-81
2021/09/08 06:00:45;;;;;;;11.30;7.57;;;25.60;48.40;;;;;;5106235;28;20414;-81
2021/09/08 06:03:14;;;;;;;14.07;7.27;;;25.60;48.50;;;;;;5105726;28;20501;-82
2021/09/08 06:05:42;;;;;;;10.10;7.20;;;25.60;48.50;;;;;;5106206;28;20445;-82
2021/09/08 06:08:10;;;;;;;10.33;7.23;;;25.50;48.60;;;;;;5106308;28;20505;-80
2021/09/08 06:10:38;;;;;;;9.07;7.00;;;25.50;48.60;;;;;;5106577;28;20423;-78
2021/09/08 06:13:06;;;;;;;8.63;6.23;;;25.40;48.50;;;;;;5106540;28;20455;-78
2021/09/08 06:15:34;;;;;;;7.60;6.50;;;25.40;48.60;;;;;;5103172;28;20548;-76
2021/09/08 06:18:07;;;;;;;9.77;7.13;;;25.40;48.60;;;;;;5106211;28;20500;-78
2021/09/08 06:20:35;;;;;;;7.13;6.43;;;25.40;48.60;;;;;;5106321;28;20451;-79
2021/09/08 06:23:03;;;;;;;6.63;6.03;;;25.40;48.40;;;;;;5106810;28;20453;-83
2021/09/08 06:25:32;;;;;;;7.47;6.60;;;25.30;48.10;;;;;;5106214;28;20540;-76
2021/09/08 06:28:00;;;;;;;10.50;6.60;;;25.30;48.40;;;;;;5105089;28;20444;-76
2021/09/08 06:30:29;;;;;;;9.70;6.60;;;25.60;49.30;;;;;;5107386;28;20502;-79
2021/09/08 06:32:57;;;;;;;9.87;6.93;;;25.80;49.00;;;;;;5107945;28;20419;-76
2021/09/08 06:35:26;;;;;;;13.07;6.60;;;26.00;48.90;;;;;;5107112;28;20560;-76
2021/09/08 06:37:55;;;;;;;12.10;6.00;;;26.10;48.70;;;;;;5107348;28;20403;-76
2021/09/08 06:40:23;;;;;;;7.30;6.60;;;26.20;48.50;;;;;;5106287;28;20446;-75
2021/09/08 06:42:53;;;;;;;14.60;6.47;;;26.30;48.60;;;;;;5100879;28;20434;-76
2021/09/08 06:45:23;;;;;;;6.77;5.70;;;26.40;48.40;;;;;;5106470;27;20468;-76
2021/09/08 06:47:51;;;;;;;6.67;5.93;;;26.40;48.40;;;;;;5104816;28;20432;-75
2021/09/08 06:50:19;;;;;;;7.37;6.10;;;26.50;48.30;;;;;;5105091;28;20418;-75
2021/09/08 06:52:48;;;;;;;6.70;6.10;;;26.50;48.20;;;;;;5104956;28;20468;-76
2021/09/08 06:55:16;;;;;;;13.70;5.77;;;26.60;48.20;;;;;;5105125;28;20466;-75
2021/09/08 06:57:44;;;;;;;7.43;5.80;;;26.60;48.00;;;;;;5104978;28;20552;-75
2021/09/08 07:00:13;;;;;;;8.43;5.40;;;26.60;47.90;;;;;;5104390;28;20546;-75
2021/09/08 07:02:41;;;;;;;6.20;5.70;;;26.60;47.90;;;;;;5105624;28;20551;-75
2021/09/08 07:05:10;;;;;;;6.50;5.90;;;26.60;47.80;;;;;;5102207;28;20519;-75
2021/09/08 07:07:39;;;;;;;12.00;5.70;;;26.60;47.80;;;;;;5105461;28;20422;-75
2021/09/08 07:10:09;;;;;;;10.30;5.63;;;26.70;47.70;;;;;;5105375;28;20452;-74
2021/09/08 07:12:37;;;;;;;7.93;5.40;;;26.60;47.70;;;;;;5105026;28;20428;-74
2021/09/08 07:15:06;;;;;;;7.83;6.07;;;26.70;47.80;;;;;;5104875;28;20522;-75
2021/09/08 07:17:35;;;;;;;9.33;5.70;;;26.70;47.70;;;;;;5101038;28;20423;-75
2021/09/08 07:20:03;;;;;;;6.30;5.70;;;26.80;47.80;;;;;;5101728;28;20452;-75
2021/09/08 07:22:31;;;;;;;10.20;5.23;;;26.80;47.80;;;;;;5103083;28;20415;-74
2021/09/08 07:24:59;;;;;;;5.93;5.43;;;26.90;47.80;;;;;;5103558;28;20447;-74
2021/09/08 07:27:29;;;;;;;6.00;5.03;;;26.90;47.80;;;;;;5104124;28;20406;-74
2021/09/08 07:29:57;;;;;;;5.90;5.20;;;26.90;47.80;;;;;;5104839;28;20445;-74
2021/09/08 07:32:25;;;;;;;5.97;5.27;;;27.00;47.80;;;;;;5104825;28;20407;-74
2021/09/08 07:34:57;;;;;;;6.17;5.20;;;27.10;47.80;;;;;;5104649;28;20489;-74
2021/09/08 07:37:26;;;;;;;6.40;5.03;;;27.10;47.60;;;;;;5103046;28;20496;-74
2021/09/08 07:39:54;;;;;;;5.60;5.20;;;27.10;47.60;;;;;;5104663;28;20471;-74
2021/09/08 07:42:22;;;;;;;7.07;5.00;;;27.20;47.60;;;;;;5104991;28;20531;-74
2021/09/08 07:44:51;;;;;;;7.60;5.20;;;27.20;47.60;;;;;;5105017;28;20487;-74
2021/09/08 07:47:19;;;;;;;6.87;4.87;;;27.30;47.60;;;;;;5105066;28;20521;-73
2021/09/08 07:49:47;;;;;;;5.60;5.20;;;27.30;47.60;;;;;;5105250;28;20472;-74
2021/09/08 07:52:15;;;;;;;5.30;4.90;;;27.40;47.60;;;;;;5104834;28;20418;-74
2021/09/08 07:54:43;;;;;;;5.43;5.00;;;27.40;47.50;;;;;;5105099;28;20471;-73
2021/09/08 07:57:11;;;;;;;5.70;5.30;;;27.50;47.40;;;;;;5104176;28;20571;-73
2021/09/08 07:59:39;;;;;;;4.67;4.37;;;27.50;47.40;;;;;;5100344;28;20450;-73
2021/09/08 08:02:09;;;;;;;5.63;5.10;;;27.60;47.20;;;;;;5104702;28;20435;-74
2021/09/08 08:04:37;;;;;;;4.70;4.40;;;27.60;47.10;;;;;;5105150;28;20447;-74
2021/09/08 08:07:05;;;;;;;5.30;4.90;;;27.70;47.10;;;;;;5104376;28;20416;-74
2021/09/08 08:09:33;;;;;;;5.23;4.83;;;27.80;47.00;;;;;;5105126;28;20532;-74
2021/09/08 08:12:02;;;;;;;5.57;5.00;;;27.90;47.00;;;;;;5108284;28;20468;-73
2021/09/08 08:14:30;;;;;;;5.17;4.77;;;28.00;46.80;;;;;;5108851;28;20535;-74
2021/09/08 08:16:58;;;;;;;5.50;4.73;;;28.10;46.70;;;;;;5108595;28;20544;-74
2021/09/08 08:19:27;;;;;;;5.57;5.07;;;28.20;46.60;;;;;;5108909;28;20452;-73
2021/09/08 08:21:55;;;;;;;5.00;4.60;;;28.30;46.40;;;;;;5107038;28;20462;-74
2021/09/08 08:24:23;;;;;;;4.90;4.50;;;28.40;46.30;;;;;;5108185;28;20453;-74
2021/09/08 08:26:51;;;;;;;5.00;4.70;;;28.50;46.20;;;;;;5108410;28;20447;-74
2021/09/08 08:29:19;;;;;;;4.73;4.30;;;28.60;46.10;;;;;;5108409;28;20499;-74
2021/09/08 08:31:47;;;;;;;9.33;4.10;;;28.70;45.90;;;;;;5107670;28;20497;-74
2021/09/08 08:34:16;;;;;;;4.70;4.40;;;28.90;45.70;;;;;;5108552;28;20436;-74
2021/09/08 08:36:45;;;;;;;4.70;4.33;;;28.90;45.50;;;;;;5108109;28;20452;-74
2021/09/08 08:39:13;;;;;;;5.00;4.50;;;29.10;45.40;;;;;;5108052;28;20492;-74
2021/09/08 08:41:42;;;;;;;9.60;4.43;;;29.20;45.30;;;;;;5108353;28;20459;-74
2021/09/08 08:44:11;;;;;;;5.30;4.90;;;29.30;45.10;;;;;;5108618;28;20499;-74
2021/09/08 08:46:40;;;;;;;5.77;5.27;;;29.40;44.80;;;;;;5108156;28;20440;-74
2021/09/08 08:49:08;;;;;;;5.70;4.50;;;29.50;44.60;;;;;;5108679;28;20486;-74
2021/09/08 08:51:36;;;;;;;5.30;4.80;;;29.50;44.40;;;;;;5108101;27;20418;-74
2021/09/08 08:54:05;;;;;;;5.00;4.60;;;29.60;44.20;;;;;;5108288;28;20539;-74
2021/09/08 08:56:34;;;;;;;4.77;4.40;;;29.70;44.20;;;;;;5107974;28;20525;-74
2021/09/08 08:59:02;;;;;;;5.50;4.27;;;29.70;44.00;;;;;;5108460;28;20527;-75
2021/09/08 09:01:33;;;;;;;5.00;4.70;;;29.70;44.10;;;;;;5108181;28;20456;-74
2021/09/08 09:04:03;;;;;;;4.50;4.30;;;29.80;44.00;;;;;;5107945;28;20535;-74
2021/09/08 09:06:32;;;;;;;4.83;4.43;;;29.80;43.90;;;;;;5108140;28;20503;-74
2021/09/08 09:09:01;;;;;;;4.77;4.47;;;29.90;43.90;;;;;;5108073;27;20497;-74
2021/09/08 09:11:32;;;;;;;5.10;4.80;;;29.90;43.80;;;;;;5102701;28;20471;-73
2021/09/08 09:14:00;;;;;;;4.77;4.30;;;30.00;43.60;;;;;;5107620;28;20439;-74
2021/09/08 09:16:29;;;;;;;4.50;4.20;;;30.10;43.60;;;;;;5106830;28;20493;-74
2021/09/08 09:18:57;;;;;;;4.40;4.10;;;30.10;43.50;;;;;;5107624;28;20444;-74
2021/09/08 09:21:25;;;;;;;4.33;4.03;;;30.20;43.40;;;;;;5107085;28;20475;-74
2021/09/08 09:23:55;;;;;;;4.83;4.43;;;30.30;43.30;;;;;;5106831;28;20467;-74
2021/09/08 09:26:23;;;;;;;4.60;4.30;;;30.40;43.20;;;;;;5107678;28;20440;-74
2021/09/08 09:28:53;;;;;;;4.83;4.40;;;30.50;42.90;;;;;;5107727;28;20439;-74
2021/09/08 09:31:22;;;;;;;4.17;3.87;;;30.50;42.70;;;;;;5107005;28;20535;-74
2021/09/08 09:33:54;;;;;;;5.20;4.30;;;30.70;42.80;;;;;;5107661;28;20447;-74
2021/09/08 09:36:23;;;;;;;4.50;4.20;;;30.80;42.60;;;;;;5107422;28;20526;-74
2021/09/08 09:38:52;;;;;;;4.47;4.17;;;30.90;42.40;;;;;;5107215;28;20492;-74
2021/09/08 09:41:23;;;;;;;4.50;4.20;;;30.90;42.30;;;;;;5107398;28;20444;-74
2021/09/08 09:43:52;;;;;;;4.20;4.00;;;31.00;42.10;;;;;;5107703;28;20452;-74
2021/09/08 09:46:21;;;;;;;7.00;4.37;;;31.10;41.90;;;;;;5107297;28;20428;-74
2021/09/08 09:48:50;;;;;;;4.20;3.90;;;31.20;41.80;;;;;;5107250;28;20440;-74
2021/09/08 09:51:18;;;;;;;4.57;4.17;;;31.30;41.70;;;;;;5106858;28;20475;-74
2021/09/08 09:53:46;;;;;;;4.47;4.17;;;31.40;41.60;;;;;;5106999;28;20447;-74
2021/09/08 09:56:14;;;;;;;6.30;4.30;;;31.40;41.50;;;;;;5106866;28;20471;-75
2021/09/08 09:58:42;;;;;;;4.80;4.50;;;31.50;41.50;;;;;;5106788;28;20448;-75
2021/09/08 10:01:11;;;;;;;6.00;3.97;;;31.60;41.40;;;;;;5103474;28;20520;-74
2021/09/08 10:03:40;;;;;;;4.03;3.63;;;31.60;41.20;;;;;;5101138;28;20440;-74
2021/09/08 10:06:08;;;;;;;4.40;4.03;;;31.70;41.10;;;;;;5094669;28;20437;-74
2021/09/08 10:08:41;;;;;;;7.47;4.40;;;31.80;41.10;;;;;;5095675;28;20509;-74
2021/09/08 10:11:09;;;;;;;4.77;4.47;;;31.80;41.00;;;;;;5105753;28;20492;-74
2021/09/08 10:13:40;;;;;;;4.30;4.00;;;31.80;40.90;;;;;;5106656;28;20470;-74
2021/09/08 10:16:08;;;;;;;4.73;4.43;;;31.90;40.80;;;;;;5106591;28;20444;-74
2021/09/08 10:18:38;;;;;;;3.60;3.50;;;32.00;40.80;;;;;;5106347;28;20471;-73
2021/09/08 10:21:07;;;;;;;4.30;4.10;;;32.00;40.70;;;;;;5106214;28;20472;-74
2021/09/08 10:23:36;;;;;;;4.20;4.00;;;32.00;40.50;;;;;;5106497;28;20451;-74
2021/09/08 10:26:10;;;;;;;5.20;4.03;;;32.10;40.50;;;;;;5106544;28;20533;-73
2021/09/08 10:28:38;;;;;;;4.00;3.80;;;32.20;40.40;;;;;;5106150;28;20508;-74
2021/09/08 10:31:07;;;;;;;5.47;4.23;;;32.30;40.30;;;;;;5106515;28;20440;-74
2021/09/08 10:33:37;;;;;;;4.20;3.90;;;32.40;40.20;;;;;;5105941;28;20453;-74
2021/09/08 10:36:06;;;;;;;4.00;3.80;;;32.40;40.00;;;;;;5106112;28;20501;-74
2021/09/08 10:38:35;;;;;;;6.73;4.30;;;32.50;39.80;;;;;;5088002;28;20532;-74
2021/09/08 10:41:03;;;;;;;4.40;4.10;;;32.50;39.80;;;;;;5105690;28;20464;-74
2021/09/08 10:43:32;;;;;;;3.90;3.70;;;32.60;39.70;;;;;;5105639;28;20501;-73
2021/09/08 10:46:01;;;;;;;4.50;4.20;;;32.70;39.50;;;;;;5106014;28;20448;-74
2021/09/08 10:48:38;;;;;;;4.60;4.20;;;32.80;39.40;;;;;;5105993;28;20536;-74
2021/09/08 10:51:06;;;;;;;4.33;4.13;;;32.90;39.30;;;;;;5105219;28;20547;-74
2021/09/08 10:53:35;;;;;;;4.10;3.80;;;33.00;39.20;;;;;;5105535;28;20444;-73
2021/09/08 10:56:05;;;;;;;7.90;4.80;;;33.10;39.00;;;;;;5105681;28;20440;-74
2021/09/08 10:58:58;;;;;;;4.57;4.27;;;33.10;38.90;;;;;;5104979;28;20560;-74
2021/09/08 11:01:26;;;;;;;4.10;3.90;;;33.30;38.80;;;;;;5105320;28;20496;-73
2021/09/08 11:03:56;;;;;;;4.23;4.03;;;33.40;38.70;;;;;;5105409;28;20443;-73
2021/09/08 11:06:37;;;;;;;5.00;4.50;;;33.50;38.60;;;;;;5105359;28;20444;-74
2021/09/08 11:09:07;;;;;;;4.03;3.80;;;33.60;38.40;;;;;;5105447;28;20436;-74
2021/09/08 11:11:35;;;;;;;4.40;4.20;;;33.80;38.10;;;;;;5105023;28;20425;-74
2021/09/08 11:14:03;;;;;;;4.40;4.10;;;34.20;38.00;;;;;;5105349;28;20458;-74
2021/09/08 11:16:32;;;;;;;4.90;4.50;;;35.10;37.00;;;;;;5104893;28;20452;-73
2021/09/08 11:19:04;;;;;;;4.40;4.20;;;36.30;35.30;;;;;;5102511;28;20481;-73
2021/09/08 11:21:34;;;;;;;3.90;3.80;;;37.60;33.60;;;;;;5098477;28;20466;-74
2021/09/08 11:24:03;;;;;;;3.70;3.50;;;38.60;32.20;;;;;;5084580;28;20445;-73
2021/09/08 11:26:32;;;;;;;3.90;3.77;;;39.60;30.50;;;;;;5087467;28;20510;-74
2021/09/08 11:29:01;;;;;;;3.77;3.50;;;40.30;29.90;;;;;;5104716;28;20456;-74
2021/09/08 11:31:33;;;;;;;3.10;3.00;;;40.90;29.20;;;;;;5101713;28;20469;-73
2021/09/08 11:34:03;;;;;;;3.40;3.20;;;41.60;28.50;;;;;;5104299;28;20434;-74
2021/09/08 11:36:31;;;;;;;3.07;2.97;;;42.10;27.70;;;;;;5107219;28;20444;-73
2021/09/08 11:39:00;;;;;;;3.10;3.00;;;42.70;27.40;;;;;;5106541;27;20532;-74
2021/09/08 11:41:29;;;;;;;2.90;2.80;;;43.30;27.00;;;;;;5102972;27;20470;-74
2021/09/08 11:44:01;;;;;;;3.00;2.90;;;43.70;26.50;;;;;;5104452;28;20427;-75
2021/09/08 11:46:31;;;;;;;4.50;2.90;;;44.10;26.00;;;;;;5104019;28;20452;-74
2021/09/08 11:49:05;;;;;;;3.00;2.80;;;44.50;25.70;;;;;;5105199;28;20435;-73
2021/09/08 11:51:34;;;;;;;2.80;2.60;;;44.70;25.40;;;;;;5104922;28;20476;-74
2021/09/08 11:54:04;;;;;;;2.83;2.63;;;44.70;25.20;;;;;;5104154;28;20423;-74
2021/09/08 11:56:32;;;;;;;4.10;2.77;;;45.10;25.00;;;;;;5104294;28;20427;-73
2021/09/08 11:59:01;;;;;;;2.60;2.50;;;45.40;24.80;;;;;;5103967;28;20498;-73
2021/09/08 12:01:32;;;;;;;3.30;2.90;;;45.70;24.50;;;;;;5104418;28;20427;-73
2021/09/08 12:04:01;;;;;;;4.37;2.50;;;45.90;24.30;;;;;;5104413;28;20547;-74
2021/09/08 12:06:31;;;;;;;2.67;2.57;;;46.10;24.10;;;;;;5104470;28;20436;-74
2021/09/08 12:09:00;;;;;;;2.87;2.77;;;46.20;23.70;;;;;;5105165;28;20457;-74
2021/09/08 12:11:32;;;;;;;2.43;2.33;;;46.50;23.70;;;;;;5110341;28;20419;-74
2021/09/08 12:14:25;;;;;;;2.90;2.80;;;46.60;23.80;;;;;;5103995;28;20496;-74
2021/09/08 12:16:54;;;;;;;2.20;2.20;;;46.60;23.50;;;;;;5104777;28;20475;-74
2021/09/08 12:19:29;;;;;;;2.27;2.27;;;46.80;23.40;;;;;;5104176;28;20497;-74
2021/09/08 12:22:06;;;;;;;2.23;2.23;;;46.90;23.40;;;;;;5104493;28;20442;-74
2021/09/08 12:24:35;;;;;;;2.37;2.37;;;46.80;23.30;;;;;;5104238;28;20462;-75
2021/09/08 12:27:03;;;;;;;1.93;1.93;;;47.10;23.30;;;;;;5104400;28;20526;-75
2021/09/08 12:29:31;;;;;;;2.40;2.40;;;47.10;23.30;;;;;;5104406;28;20431;-74
2021/09/08 12:32:00;;;;;;;2.77;2.67;;;47.20;23.10;;;;;;5103727;28;20424;-74
2021/09/08 12:34:43;;;;;;;2.10;2.10;;;47.20;23.00;;;;;;5103925;28;20447;-75
2021/09/08 12:37:12;;;;;;;2.40;2.40;;;47.20;23.00;;;;;;5104054;28;20470;-74
2021/09/08 12:39:43;;;;;;;2.43;2.33;;;47.20;22.80;;;;;;5104168;28;20526;-75
2021/09/08 12:42:18;;;;;;;2.63;2.43;;;47.30;23.00;;;;;;5103930;28;20443;-74
2021/09/08 12:44:46;;;;;;;2.77;2.60;;;47.30;22.90;;;;;;5104181;28;20498;-74
2021/09/08 12:47:15;;;;;;;2.67;2.47;;;47.30;23.10;;;;;;5103607;28;20466;-74
2021/09/08 12:49:43;;;;;;;2.80;2.60;;;47.40;22.90;;;;;;5103918;28;20469;-74
2021/09/08 12:52:13;;;;;;;5.43;2.53;;;47.40;23.10;;;;;;5103878;28;20451;-74
2021/09/08 12:54:42;;;;;;;3.20;2.93;;;47.40;23.20;;;;;;5103706;28;20423;-74